createdAt,value
2019-01-19T00:01:49.230Z,-1.30
2019-01-19T00:05:20.394Z,-1.31
2019-01-19T00:08:30.904Z,-1.30
2019-01-19T00:11:41.157Z,-1.28
2019-01-19T00:14:50.429Z,-1.25
2019-01-19T00:17:56.979Z,-1.26
2019-01-19T00:20:42.093Z,-1.25
2019-01-19T00:23:51.017Z,-1.27
2019-01-19T00:27:15.051Z,-1.22
2019-01-19T00:30:38.564Z,-1.17
2019-01-19T00:33:34.586Z,-1.11
2019-01-19T00:36:40.172Z,-1.07
2019-01-19T00:39:43.114Z,-1.04
2019-01-19T00:42:37.974Z,-1.00
2019-01-19T00:46:18.603Z,-0.98
2019-01-19T00:49:25.837Z,-0.95
2019-01-19T00:52:46.274Z,-0.93
2019-01-19T00:56:10.834Z,-0.94
2019-01-19T00:58:50.379Z,-0.95
2019-01-19T01:02:01.864Z,-1.06
2019-01-19T01:05:17.066Z,-1.12
2019-01-19T01:08:36.252Z,-1.09
2019-01-19T01:11:27.043Z,-1.08
2019-01-19T01:14:39.711Z,-1.11
2019-01-19T01:17:54.127Z,-1.12
2019-01-19T01:21:07.161Z,-1.16
2019-01-19T01:24:21.916Z,-1.20
2019-01-19T01:27:21.234Z,-1.30
2019-01-19T01:30:32.767Z,-1.37
2019-01-19T01:33:37.475Z,-1.45
2019-01-19T01:36:55.765Z,-1.41
2019-01-19T01:40:04.684Z,-1.33
2019-01-19T01:43:08.394Z,-1.25
2019-01-19T01:46:36.528Z,-1.24
2019-01-19T01:49:33.705Z,-1.24
2019-01-19T01:52:32.193Z,-1.19
2019-01-19T01:55:24.081Z,-1.18
2019-01-19T01:58:21.088Z,-1.19
2019-01-19T02:01:29.951Z,-1.27
2019-01-19T02:04:35.017Z,-1.37
2019-01-19T02:07:52.743Z,-1.47
2019-01-19T02:10:57.171Z,-1.53
2019-01-19T02:13:54.129Z,-1.55
2019-01-19T02:17:12.205Z,-1.66
2019-01-19T02:20:35.364Z,-1.76
2019-01-19T02:23:27.983Z,-1.88
2019-01-19T02:26:42.570Z,-1.95
2019-01-19T02:29:55.013Z,-2.01
2019-01-19T02:33:09.033Z,-2.12
2019-01-19T02:36:24.170Z,-2.23
2019-01-19T02:39:38.043Z,-2.30
2019-01-19T02:42:44.066Z,-2.42
2019-01-19T02:45:47.491Z,-2.61
2019-01-19T02:49:13.501Z,-2.74
2019-01-19T02:52:23.150Z,-2.73
2019-01-19T02:55:37.459Z,-2.71
2019-01-19T02:58:24.850Z,-2.71
2019-01-19T03:01:23.901Z,-2.75
2019-01-19T03:04:35.679Z,-2.74
2019-01-19T03:07:54.609Z,-2.78
2019-01-19T03:11:09.446Z,-2.89
2019-01-19T03:14:31.413Z,-2.92
2019-01-19T03:18:00.148Z,-3.06
2019-01-19T03:20:58.543Z,-3.08
2019-01-19T03:24:12.014Z,-3.13
2019-01-19T03:27:15.177Z,-3.16
2019-01-19T03:30:46.645Z,-3.03
2019-01-19T03:33:55.494Z,-3.07
2019-01-19T03:37:29.786Z,-3.08
2019-01-19T03:40:40.458Z,-3.00
2019-01-19T03:43:51.246Z,-2.90
2019-01-19T03:47:06.095Z,-2.84
2019-01-19T03:50:01.618Z,-2.83
2019-01-19T03:53:10.766Z,-2.88
2019-01-19T03:56:18.967Z,-2.83
2019-01-19T03:59:21.639Z,-2.73
2019-01-19T04:02:50.865Z,-2.61
2019-01-19T04:05:55.413Z,-2.56
2019-01-19T04:09:15.348Z,-2.50
2019-01-19T04:12:16.491Z,-2.54
2019-01-19T04:15:32.339Z,-2.76
2019-01-19T04:18:38.605Z,-2.86
2019-01-19T04:22:06.879Z,-2.98
2019-01-19T04:25:03.827Z,-3.10
2019-01-19T04:27:35.791Z,-3.22
2019-01-19T04:30:10.154Z,-3.37
2019-01-19T04:32:42.118Z,-3.47
2019-01-19T04:35:14.099Z,-3.51
2019-01-19T04:37:46.048Z,-3.59
2019-01-19T04:40:18.020Z,-3.69
2019-01-19T04:42:50.182Z,-3.70
2019-01-19T04:45:22.171Z,-3.78
2019-01-19T04:47:54.163Z,-3.87
2019-01-19T04:50:26.117Z,-3.83
2019-01-19T04:52:58.193Z,-3.89
2019-01-19T04:55:30.145Z,-3.92
2019-01-19T04:58:02.112Z,-4.07
2019-01-19T05:00:34.103Z,-4.14
2019-01-19T05:03:06.236Z,-4.19
2019-01-19T05:05:38.299Z,-4.36
2019-01-19T05:08:10.250Z,-4.32
2019-01-19T05:10:42.197Z,-4.36
2019-01-19T05:13:14.148Z,-4.33
2019-01-19T05:15:46.197Z,-4.43
2019-01-19T05:18:18.149Z,-4.36
2019-01-19T05:20:52.055Z,-4.30
2019-01-19T05:23:25.477Z,-4.27
2019-01-19T05:25:57.428Z,-4.19
2019-01-19T05:28:29.788Z,-4.27
2019-01-19T05:31:01.752Z,-4.19
2019-01-19T05:33:33.738Z,-4.09
2019-01-19T05:36:05.699Z,-4.03
2019-01-19T05:38:37.701Z,-3.92
2019-01-19T05:41:09.653Z,-3.86
2019-01-19T05:43:41.609Z,-3.81
2019-01-19T05:46:21.366Z,-3.75
2019-01-19T05:48:48.316Z,-3.70
2019-01-19T05:51:20.301Z,-3.73
2019-01-19T05:53:52.250Z,-3.70
2019-01-19T05:56:24.223Z,-3.67
2019-01-19T05:58:56.176Z,-3.70
2019-01-19T06:01:28.647Z,-3.71
2019-01-19T06:04:00.587Z,-3.69
2019-01-19T06:06:33.655Z,-3.71
2019-01-19T06:09:08.233Z,-3.82
2019-01-19T06:11:40.278Z,-3.81
2019-01-19T06:14:12.230Z,-3.80
2019-01-19T06:16:44.210Z,-3.87
2019-01-19T06:19:16.605Z,-3.86
2019-01-19T06:21:57.873Z,-3.88
2019-01-19T06:24:29.827Z,-3.85
2019-01-19T06:27:01.820Z,-3.90
2019-01-19T06:29:33.777Z,-3.93
2019-01-19T06:32:05.731Z,-4.06
2019-01-19T06:34:37.753Z,-3.99
2019-01-19T06:37:09.759Z,-4.08
2019-01-19T06:39:41.766Z,-3.97
2019-01-19T06:42:13.728Z,-3.95
2019-01-19T06:44:46.675Z,-3.89
2019-01-19T06:47:18.781Z,-3.92
2019-01-19T06:49:50.738Z,-3.98
2019-01-19T06:52:22.722Z,-4.08
2019-01-19T06:54:54.861Z,-4.07
2019-01-19T06:57:27.011Z,-4.08
2019-01-19T06:59:58.972Z,-4.08
2019-01-19T07:02:30.979Z,-4.05
2019-01-19T07:05:02.921Z,-4.07
2019-01-19T07:07:34.910Z,-4.11
2019-01-19T07:10:10.093Z,-4.17
2019-01-19T07:12:42.073Z,-4.24
2019-01-19T07:15:14.581Z,-4.36
2019-01-19T07:17:46.681Z,-4.36
2019-01-19T07:20:21.513Z,-4.41
2019-01-19T07:22:53.568Z,-4.40
2019-01-19T07:25:25.506Z,-4.20
2019-01-19T07:27:57.537Z,-4.24
2019-01-19T07:30:30.683Z,-4.20
2019-01-19T07:33:02.718Z,-4.02
2019-01-19T07:35:34.738Z,-3.82
2019-01-19T07:38:06.779Z,-3.75
2019-01-19T07:40:38.770Z,-3.71
2019-01-19T07:43:14.137Z,-3.69
2019-01-19T07:45:46.097Z,-3.62
2019-01-19T07:48:18.138Z,-3.45
2019-01-19T07:50:50.205Z,-3.24
2019-01-19T07:53:23.279Z,-3.00
2019-01-19T07:55:55.268Z,-2.82
2019-01-19T07:58:27.247Z,-2.71
2019-01-19T08:00:59.236Z,-2.66
2019-01-19T08:03:31.172Z,-2.61
2019-01-19T08:06:03.192Z,-2.70
2019-01-19T08:08:35.155Z,-2.74
2019-01-19T08:11:07.140Z,-2.74
2019-01-19T08:13:39.094Z,-2.72
2019-01-19T08:16:11.091Z,-2.71
2019-01-19T08:18:43.040Z,-2.62
2019-01-19T08:21:15.097Z,-2.57
2019-01-19T08:23:47.070Z,-2.54
2019-01-19T08:26:19.041Z,-2.50
2019-01-19T08:28:51.045Z,-2.38
2019-01-19T08:31:23.082Z,-2.09
2019-01-19T08:33:55.833Z,-1.81
2019-01-19T08:36:27.976Z,-1.53
2019-01-19T08:39:00.016Z,-1.09
2019-01-19T08:41:31.977Z,-0.81
2019-01-19T08:44:05.322Z,-0.55
2019-01-19T08:46:37.278Z,-0.18
2019-01-19T08:49:13.939Z,0.04
2019-01-19T08:51:46.128Z,0.25
2019-01-19T08:54:18.095Z,0.30
2019-01-19T08:56:50.050Z,0.53
2019-01-19T08:59:21.999Z,0.58
2019-01-19T09:01:53.944Z,0.62
2019-01-19T09:04:25.910Z,0.33
2019-01-19T09:06:57.897Z,0.23
2019-01-19T09:09:30.017Z,0.07
2019-01-19T09:12:02.035Z,-0.15
2019-01-19T09:14:34.091Z,-0.44
2019-01-19T09:17:07.168Z,-0.59
2019-01-19T09:19:39.176Z,-0.56
2019-01-19T15:31:05.921Z,-0.12
2019-01-19T15:34:13.848Z,-0.19
2019-01-19T15:36:58.041Z,-0.36
2019-01-19T15:39:53.382Z,-0.57
2019-01-19T15:42:58.586Z,-0.74
2019-01-19T15:45:43.579Z,-0.92
2019-01-19T15:49:00.248Z,-1.05
2019-01-19T15:52:00.637Z,-1.13
2019-01-19T15:55:12.663Z,-1.27
2019-01-19T15:58:18.084Z,-1.39
2019-01-19T16:01:20.688Z,-1.45
2019-01-19T16:04:28.333Z,-1.55
2019-01-19T16:07:39.869Z,-1.61
2019-01-19T16:10:49.953Z,-1.73
2019-01-19T16:13:56.985Z,-1.80
2019-01-19T16:16:59.677Z,-1.80
2019-01-19T16:20:14.897Z,-1.84
2019-01-19T16:23:08.506Z,-1.88
2019-01-19T16:26:12.095Z,-1.88
2019-01-19T16:29:05.385Z,-1.91
2019-01-19T16:32:27.375Z,-2.02
2019-01-19T16:35:39.003Z,-2.10
2019-01-19T16:38:49.721Z,-2.17
2019-01-19T16:42:14.002Z,-2.20
2019-01-19T16:45:35.871Z,-2.24
2019-01-19T16:48:42.030Z,-2.31
2019-01-19T16:51:33.162Z,-2.35
2019-01-19T16:54:14.788Z,-2.37
2019-01-19T16:57:22.192Z,-2.42
2019-01-19T17:00:53.684Z,-2.40
2019-01-19T17:03:59.612Z,-2.46
2019-01-19T17:07:11.372Z,-2.52
2019-01-19T17:09:58.160Z,-2.49
2019-01-19T17:13:05.903Z,-2.52
2019-01-19T17:15:57.363Z,-2.58
2019-01-19T17:19:10.990Z,-2.62
2019-01-19T17:22:23.745Z,-2.64
2019-01-19T17:25:31.981Z,-2.70
2019-01-19T17:28:51.289Z,-2.74
2019-01-19T17:31:50.687Z,-2.78
2019-01-19T17:35:10.340Z,-2.81
2019-01-19T17:38:10.343Z,-2.87
2019-01-19T17:41:18.534Z,-2.91
2019-01-19T17:44:44.181Z,-2.93
2019-01-19T17:48:00.562Z,-2.97
2019-01-19T17:50:56.562Z,-3.01
2019-01-19T17:54:13.101Z,-3.08
2019-01-19T17:57:04.102Z,-3.10
2019-01-19T18:00:16.340Z,-3.18
2019-01-19T18:03:11.725Z,-3.23
2019-01-19T18:06:12.540Z,-3.24
2019-01-19T18:09:15.225Z,-3.24
2019-01-19T18:12:14.413Z,-3.24
2019-01-19T18:15:22.656Z,-3.28
2019-01-19T18:18:28.650Z,-3.32
2019-01-19T18:21:14.623Z,-3.35
2019-01-19T18:24:33.323Z,-3.39
2019-01-19T18:27:39.709Z,-3.42
2019-01-19T18:31:05.046Z,-3.42
2019-01-19T18:33:55.954Z,-3.39
2019-01-19T18:36:43.824Z,-3.42
2019-01-19T18:39:55.972Z,-3.46
2019-01-19T18:42:56.188Z,-3.45
2019-01-19T18:46:21.415Z,-3.48
2019-01-19T18:49:29.630Z,-3.51
2019-01-19T18:52:23.561Z,-3.54
2019-01-19T18:55:09.135Z,-3.59
2019-01-19T18:58:29.099Z,-3.59
2019-01-19T19:01:24.401Z,-3.60
2019-01-19T19:04:15.169Z,-3.64
2019-01-19T19:11:04.981Z,-3.65
2019-01-19T19:14:47.097Z,-3.60
2019-01-19T19:17:45.971Z,-3.72
2019-01-19T19:21:27.112Z,-3.71
2019-01-19T19:24:49.097Z,-3.74
2019-01-19T19:28:34.385Z,-3.76
2019-01-19T19:31:37.316Z,-3.77
2019-01-19T19:34:38.012Z,-3.81
2019-01-19T19:38:04.161Z,-3.82
2019-01-19T19:41:10.364Z,-3.82
2019-01-19T19:44:28.975Z,-3.86
2019-01-19T19:47:28.936Z,-3.81
2019-01-19T19:51:37.213Z,-3.88
2019-01-19T19:54:21.386Z,-3.92
2019-01-19T19:57:07.559Z,-4.00
2019-01-19T20:00:09.824Z,-4.03
2019-01-19T20:03:00.880Z,-4.08
2019-01-19T20:05:40.091Z,-4.09
2019-01-19T20:08:45.903Z,-4.07
2019-01-19T20:11:37.244Z,-4.12
2019-01-19T20:14:28.195Z,-4.10
2019-01-19T20:17:46.734Z,-4.11
2019-01-19T20:20:57.833Z,-4.13
2019-01-19T20:23:46.118Z,-4.18
2019-01-19T20:26:21.680Z,-4.22
2019-01-19T20:29:25.598Z,-4.21
2019-01-19T20:32:38.676Z,-4.22
2019-01-19T20:35:11.241Z,-4.26
2019-01-19T20:37:52.691Z,-4.29
2019-01-19T20:40:25.022Z,-4.31
2019-01-19T20:42:57.463Z,-4.33
2019-01-19T20:49:17.839Z,-4.31
2019-01-19T20:52:17.779Z,-4.34
2019-01-19T20:55:03.046Z,-4.39
2019-01-19T20:57:52.395Z,-4.36
2019-01-19T21:00:59.099Z,-4.40
2019-01-19T21:03:41.048Z,-4.43
2019-01-19T21:06:33.317Z,-4.43
2019-01-19T21:09:27.394Z,-4.45
2019-01-19T21:12:25.480Z,-4.42
2019-01-19T21:14:58.246Z,-4.42
2019-01-19T21:17:31.160Z,-4.45
2019-01-19T21:20:05.087Z,-4.50
2019-01-19T21:26:48.021Z,-4.56
2019-01-19T21:29:51.869Z,-4.56
2019-01-19T21:32:47.117Z,-4.64
2019-01-19T21:36:12.833Z,-4.67
2019-01-19T21:39:21.958Z,-4.67
2019-01-19T21:41:54.177Z,-4.70
2019-01-19T21:44:47.535Z,-4.61
2019-01-19T21:47:22.447Z,-4.63
2019-01-19T21:50:17.925Z,-4.70
2019-01-19T21:53:27.393Z,-4.77
2019-01-19T21:56:33.985Z,-4.84
2019-01-19T21:59:45.056Z,-4.89
2019-01-19T22:02:40.315Z,-4.90
2019-01-19T22:05:18.578Z,-4.92
2019-01-19T22:08:16.091Z,-4.98
2019-01-19T22:10:49.005Z,-4.99
2019-01-19T22:13:35.419Z,-5.04
2019-01-19T22:19:26.258Z,-5.10
2019-01-19T22:22:20.620Z,-5.09
2019-01-19T22:25:19.545Z,-5.12
2019-01-19T22:28:02.769Z,-5.13
2019-01-19T22:30:47.350Z,-5.11
2019-01-19T22:34:03.124Z,-5.09
2019-01-19T22:37:08.779Z,-5.08
2019-01-19T22:40:00.826Z,-5.08
2019-01-19T22:43:03.809Z,-5.11
2019-01-19T22:46:17.939Z,-5.10
2019-01-19T22:48:58.692Z,-5.10
2019-01-19T22:51:42.673Z,-5.10
2019-01-19T22:57:58.399Z,-5.04
2019-01-19T23:01:30.312Z,-5.02
2019-01-19T23:05:14.798Z,-5.03
2019-01-19T23:07:53.823Z,-5.02
2019-01-19T23:10:42.906Z,-5.04
2019-01-19T23:13:15.188Z,-5.02
2019-01-19T23:15:47.572Z,-5.01
2019-01-19T23:18:19.943Z,-4.96
2019-01-19T23:20:52.273Z,-4.95
2019-01-19T23:23:24.588Z,-4.96
2019-01-19T23:25:58.212Z,-4.98
2019-01-19T23:28:30.543Z,-5.02
2019-01-19T23:31:02.823Z,-5.10
2019-01-19T23:33:35.143Z,-5.12
2019-01-19T23:36:07.533Z,-5.13
2019-01-19T23:38:39.891Z,-5.12
2019-01-19T23:41:12.217Z,-5.16
2019-01-19T23:43:45.950Z,-5.20
2019-01-19T23:46:19.012Z,-5.20
2019-01-19T23:48:51.489Z,-5.24
2019-01-19T23:51:23.928Z,-5.18
2019-01-19T23:53:56.424Z,-5.21
2019-01-19T23:56:28.848Z,-5.23
2019-01-19T23:59:01.223Z,-5.25
